sensor_id;sensor_type;location;lat;lon;timestamp;pressure;altitude;pressure_sealevel;temperature;humidity
10606;BME280;5350;42.698;23.148;2024-01-10T00:01:37;94630.81;;;-5.54;100.00
10606;BME280;5350;42.698;23.148;2024-01-10T00:04:05;94627.25;;;-5.45;100.00
10606;BME280;5350;42.698;23.148;2024-01-10T00:06:33;94624.50;;;-5.43;100.00
10606;BME280;5350;42.698;23.148;2024-01-10T00:09:00;94627.78;;;-5.57;100.00
10606;BME280;5350;42.698;23.148;2024-01-10T00:11:27;94635.13;;;-5.54;100.00
10606;BME280;5350;42.698;23.148;2024-01-10T00:13:54;94634.19;;;-5.53;100.00
10606;BME280;5350;42.698;23.148;2024-01-10T00:16:25;94633.50;;;-5.47;100.00
10606;BME280;5350;42.698;23.148;2024-01-10T00:18:51;94625.31;;;-5.43;100.00
10606;BME280;5350;42.698;23.148;2024-01-10T00:21:18;94640.69;;;-5.43;98.87
10606;BME280;5350;42.698;23.148;2024-01-10T00:23:46;94629.97;;;-5.46;99.06
10606;BME280;5350;42.698;23.148;2024-01-10T00:26:13;94637.06;;;-5.56;100.00
10606;BME280;5350;42.698;23.148;2024-01-10T00:28:40;94627.28;;;-5.53;100.00
10606;BME280;5350;42.698;23.148;2024-01-10T00:31:07;94631.88;;;-5.40;100.00
10606;BME280;5350;42.698;23.148;2024-01-10T00:33:34;94640.84;;;-5.36;100.00
10606;BME280;5350;42.698;23.148;2024-01-10T00:36:01;94642.13;;;-5.40;100.00
10606;BME280;5350;42.698;23.148;2024-01-10T00:38:27;94651.09;;;-5.44;99.68
10606;BME280;5350;42.698;23.148;2024-01-10T00:40:55;94647.25;;;-5.40;99.59
10606;BME280;5350;42.698;23.148;2024-01-10T00:43:22;94643.41;;;-5.44;99.11
10606;BME280;5350;42.698;23.148;2024-01-10T00:45:49;94644.81;;;-5.34;98.92
10606;BME280;5350;42.698;23.148;2024-01-10T00:48:16;94651.38;;;-5.31;98.73
10606;BME280;5350;42.698;23.148;2024-01-10T00:50:43;94659.03;;;-5.23;98.20
10606;BME280;5350;42.698;23.148;2024-01-10T00:53:10;94651.94;;;-5.13;97.80
10606;BME280;5350;42.698;23.148;2024-01-10T00:55:37;94660.31;;;-5.27;97.17
10606;BME280;5350;42.698;23.148;2024-01-10T00:58:05;94652.00;;;-5.29;96.55
10606;BME280;5350;42.698;23.148;2024-01-10T01:00:32;94649.78;;;-5.32;95.66
10606;BME280;5350;42.698;23.148;2024-01-10T01:02:59;94645.56;;;-5.25;95.50
10606;BME280;5350;42.698;23.148;2024-01-10T01:05:25;94645.53;;;-5.17;96.01
10606;BME280;5350;42.698;23.148;2024-01-10T01:07:52;94641.31;;;-5.10;96.94
10606;BME280;5350;42.698;23.148;2024-01-10T01:10:19;94646.34;;;-4.94;96.65
10606;BME280;5350;42.698;23.148;2024-01-10T01:12:45;94636.09;;;-4.94;95.25
10606;BME280;5350;42.698;23.148;2024-01-10T01:15:14;94639.97;;;-4.75;95.80
10606;BME280;5350;42.698;23.148;2024-01-10T01:17:40;94647.16;;;-4.71;94.19
10606;BME280;5350;42.698;23.148;2024-01-10T01:20:07;94644.19;;;-4.60;94.20
10606;BME280;5350;42.698;23.148;2024-01-10T01:22:34;94644.31;;;-4.53;94.02
10606;BME280;5350;42.698;23.148;2024-01-10T01:25:01;94645.75;;;-4.51;92.65
10606;BME280;5350;42.698;23.148;2024-01-10T01:27:28;94649.56;;;-4.47;92.44
10606;BME280;5350;42.698;23.148;2024-01-10T01:29:54;94638.59;;;-4.41;90.33
10606;BME280;5350;42.698;23.148;2024-01-10T01:32:22;94637.28;;;-4.37;89.88
10606;BME280;5350;42.698;23.148;2024-01-10T01:34:49;94636.56;;;-4.31;89.79
10606;BME280;5350;42.698;23.148;2024-01-10T01:37:16;94634.72;;;-4.22;90.11
10606;BME280;5350;42.698;23.148;2024-01-10T01:39:43;94634.91;;;-4.24;90.34
10606;BME280;5350;42.698;23.148;2024-01-10T01:42:09;94641.31;;;-4.20;89.17
10606;BME280;5350;42.698;23.148;2024-01-10T01:44:36;94636.25;;;-4.13;88.81
10606;BME280;5350;42.698;23.148;2024-01-10T01:47:03;94636.41;;;-4.15;88.81
10606;BME280;5350;42.698;23.148;2024-01-10T01:49:32;94630.41;;;-4.07;89.45
10606;BME280;5350;42.698;23.148;2024-01-10T01:51:59;94628.28;;;-4.03;88.00
10606;BME280;5350;42.698;23.148;2024-01-10T01:54:26;94630.22;;;-4.06;87.54
10606;BME280;5350;42.698;23.148;2024-01-10T01:56:53;94623.78;;;-4.01;87.29
10606;BME280;5350;42.698;23.148;2024-01-10T01:59:20;94624.38;;;-3.99;87.42
10606;BME280;5350;42.698;23.148;2024-01-10T02:01:47;94618.09;;;-3.97;87.94
10606;BME280;5350;42.698;23.148;2024-01-10T02:04:15;94612.59;;;-3.94;88.02
10606;BME280;5350;42.698;23.148;2024-01-10T02:06:44;94617.22;;;-3.89;88.52
10606;BME280;5350;42.698;23.148;2024-01-10T02:09:10;94613.69;;;-3.88;88.79
10606;BME280;5350;42.698;23.148;2024-01-10T02:11:37;94609.31;;;-4.03;86.55
10606;BME280;5350;42.698;23.148;2024-01-10T02:14:05;94615.72;;;-4.13;84.58
10606;BME280;5350;42.698;23.148;2024-01-10T02:16:32;94610.19;;;-4.10;84.40
10606;BME280;5350;42.698;23.148;2024-01-10T02:18:58;94615.00;;;-4.07;85.01
10606;BME280;5350;42.698;23.148;2024-01-10T02:21:26;94617.03;;;-4.03;85.10
10606;BME280;5350;42.698;23.148;2024-01-10T02:23:54;94604.72;;;-3.92;85.97
10606;BME280;5350;42.698;23.148;2024-01-10T02:26:22;94610.75;;;-3.85;86.84
10606;BME280;5350;42.698;23.148;2024-01-10T02:28:49;94607.47;;;-3.79;87.46
10606;BME280;5350;42.698;23.148;2024-01-10T02:31:16;94602.50;;;-3.95;84.88
10606;BME280;5350;42.698;23.148;2024-01-10T02:33:42;94600.22;;;-3.90;84.08
10606;BME280;5350;42.698;23.148;2024-01-10T02:36:09;94608.97;;;-3.99;82.09
10606;BME280;5350;42.698;23.148;2024-01-10T02:38:36;94608.66;;;-4.34;84.25
10606;BME280;5350;42.698;23.148;2024-01-10T02:41:02;94609.03;;;-4.37;85.65
10606;BME280;5350;42.698;23.148;2024-01-10T02:43:30;94608.47;;;-4.47;86.76
10606;BME280;5350;42.698;23.148;2024-01-10T02:45:57;94609.75;;;-4.65;86.91
10606;BME280;5350;42.698;23.148;2024-01-10T02:48:25;94607.69;;;-4.70;87.18
10606;BME280;5350;42.698;23.148;2024-01-10T02:50:51;94611.56;;;-4.74;87.99
10606;BME280;5350;42.698;23.148;2024-01-10T02:53:19;94607.41;;;-4.75;89.31
10606;BME280;5350;42.698;23.148;2024-01-10T02:55:46;94617.97;;;-4.70;88.26
10606;BME280;5350;42.698;23.148;2024-01-10T02:58:14;94605.38;;;-4.65;87.98
10606;BME280;5350;42.698;23.148;2024-01-10T03:00:42;94607.91;;;-4.57;86.68
10606;BME280;5350;42.698;23.148;2024-01-10T03:03:09;94608.25;;;-4.60;86.25
10606;BME280;5350;42.698;23.148;2024-01-10T03:05:36;94603.63;;;-4.64;86.13
10606;BME280;5350;42.698;23.148;2024-01-10T03:08:03;94607.25;;;-4.59;88.20
10606;BME280;5350;42.698;23.148;2024-01-10T03:10:31;94602.50;;;-4.62;89.52
10606;BME280;5350;42.698;23.148;2024-01-10T03:12:58;94601.78;;;-4.56;90.21
10606;BME280;5350;42.698;23.148;2024-01-10T03:15:25;94611.72;;;-4.53;90.24
10606;BME280;5350;42.698;23.148;2024-01-10T03:17:53;94610.84;;;-4.45;90.83
10606;BME280;5350;42.698;23.148;2024-01-10T03:20:20;94614.38;;;-4.46;89.85
10606;BME280;5350;42.698;23.148;2024-01-10T03:22:46;94618.38;;;-4.44;89.40
10606;BME280;5350;42.698;23.148;2024-01-10T03:25:13;94619.50;;;-4.46;88.05
10606;BME280;5350;42.698;23.148;2024-01-10T03:27:40;94615.19;;;-4.46;89.00
10606;BME280;5350;42.698;23.148;2024-01-10T03:30:08;94616.78;;;-4.45;89.51
10606;BME280;5350;42.698;23.148;2024-01-10T03:32:34;94615.91;;;-4.37;89.14
10606;BME280;5350;42.698;23.148;2024-01-10T03:35:03;94610.78;;;-4.37;88.45
10606;BME280;5350;42.698;23.148;2024-01-10T03:37:29;94620.72;;;-4.34;86.42
10606;BME280;5350;42.698;23.148;2024-01-10T03:39:56;94626.72;;;-4.42;84.25
10606;BME280;5350;42.698;23.148;2024-01-10T03:42:24;94622.53;;;-4.57;83.16
10606;BME280;5350;42.698;23.148;2024-01-10T03:44:51;94629.75;;;-4.61;83.85
10606;BME280;5350;42.698;23.148;2024-01-10T03:47:17;94628.47;;;-4.57;84.70
10606;BME280;5350;42.698;23.148;2024-01-10T03:49:44;94621.72;;;-4.58;84.40
10606;BME280;5350;42.698;23.148;2024-01-10T03:52:13;94630.09;;;-4.64;83.74
10606;BME280;5350;42.698;23.148;2024-01-10T03:54:39;94624.47;;;-4.59;83.50
10606;BME280;5350;42.698;23.148;2024-01-10T03:57:06;94622.66;;;-4.59;80.70
10606;BME280;5350;42.698;23.148;2024-01-10T03:59:33;94621.72;;;-4.58;81.39
10606;BME280;5350;42.698;23.148;2024-01-10T04:01:59;94619.06;;;-4.50;81.27
10606;BME280;5350;42.698;23.148;2024-01-10T04:04:27;94621.84;;;-4.37;82.69
10606;BME280;5350;42.698;23.148;2024-01-10T04:06:53;94629.19;;;-4.34;80.85
10606;BME280;5350;42.698;23.148;2024-01-10T04:09:22;94634.41;;;-4.42;79.21
10606;BME280;5350;42.698;23.148;2024-01-10T04:11:48;94627.94;;;-4.38;78.97
10606;BME280;5350;42.698;23.148;2024-01-10T04:14:14;94633.09;;;-4.38;77.84
10606;BME280;5350;42.698;23.148;2024-01-10T04:16:41;94630.19;;;-4.35;78.32
10606;BME280;5350;42.698;23.148;2024-01-10T04:19:07;94632.41;;;-4.32;79.39
10606;BME280;5350;42.698;23.148;2024-01-10T04:21:34;94631.34;;;-4.23;80.48
10606;BME280;5350;42.698;23.148;2024-01-10T04:24:01;94635.16;;;-4.19;78.41
10606;BME280;5350;42.698;23.148;2024-01-10T04:26:29;94627.97;;;-4.23;75.40
10606;BME280;5350;42.698;23.148;2024-01-10T04:28:55;94633.59;;;-4.20;74.98
10606;BME280;5350;42.698;23.148;2024-01-10T04:31:22;94636.59;;;-4.16;75.45
10606;BME280;5350;42.698;23.148;2024-01-10T04:33:49;94641.84;;;-4.10;74.85
10606;BME280;5350;42.698;23.148;2024-01-10T04:36:15;94649.88;;;-4.13;75.65
10606;BME280;5350;42.698;23.148;2024-01-10T04:38:42;94652.03;;;-4.01;73.60
10606;BME280;5350;42.698;23.148;2024-01-10T04:41:09;94652.47;;;-3.98;71.02
10606;BME280;5350;42.698;23.148;2024-01-10T04:43:37;94664.44;;;-4.05;68.74
10606;BME280;5350;42.698;23.148;2024-01-10T04:46:03;94671.31;;;-4.20;70.14
10606;BME280;5350;42.698;23.148;2024-01-10T04:48:30;94674.78;;;-4.28;70.88
10606;BME280;5350;42.698;23.148;2024-01-10T04:50:57;94663.88;;;-4.15;72.10
10606;BME280;5350;42.698;23.148;2024-01-10T04:53:23;94669.47;;;-4.12;73.38
10606;BME280;5350;42.698;23.148;2024-01-10T04:58:59;94670.38;;;-4.05;73.24
10606;BME280;5350;42.698;23.148;2024-01-10T05:01:25;94669.94;;;-3.93;74.03
10606;BME280;5350;42.698;23.148;2024-01-10T05:03:52;94677.41;;;-3.98;72.58
10606;BME280;5350;42.698;23.148;2024-01-10T05:06:19;94675.69;;;-4.06;71.45
10606;BME280;5350;42.698;23.148;2024-01-10T05:08:46;94680.41;;;-3.95;72.63
10606;BME280;5350;42.698;23.148;2024-01-10T05:11:13;94666.13;;;-3.97;73.06
10606;BME280;5350;42.698;23.148;2024-01-10T05:13:41;94682.38;;;-3.82;72.42
10606;BME280;5350;42.698;23.148;2024-01-10T05:16:10;94680.44;;;-3.80;72.31
10606;BME280;5350;42.698;23.148;2024-01-10T05:18:37;94680.97;;;-3.70;72.81
10606;BME280;5350;42.698;23.148;2024-01-10T05:21:04;94677.69;;;-3.64;70.87
10606;BME280;5350;42.698;23.148;2024-01-10T05:23:31;94685.69;;;-3.59;69.75
10606;BME280;5350;42.698;23.148;2024-01-10T05:25:57;94684.34;;;-3.55;69.88
10606;BME280;5350;42.698;23.148;2024-01-10T05:28:24;94683.97;;;-3.52;69.32
10606;BME280;5350;42.698;23.148;2024-01-10T05:30:51;94687.63;;;-3.47;69.95
10606;BME280;5350;42.698;23.148;2024-01-10T05:33:19;94678.59;;;-3.57;69.50
10606;BME280;5350;42.698;23.148;2024-01-10T05:35:46;94698.53;;;-3.59;67.97
10606;BME280;5350;42.698;23.148;2024-01-10T05:38:12;94689.31;;;-3.54;67.68
10606;BME280;5350;42.698;23.148;2024-01-10T05:40:39;94686.91;;;-3.55;66.29
10606;BME280;5350;42.698;23.148;2024-01-10T05:43:15;94690.97;;;-3.61;65.62
10606;BME280;5350;42.698;23.148;2024-01-10T05:45:42;94691.53;;;-3.65;65.50
10606;BME280;5350;42.698;23.148;2024-01-10T05:48:09;94691.59;;;-3.59;65.92
10606;BME280;5350;42.698;23.148;2024-01-10T05:50:37;94688.50;;;-3.54;66.65
10606;BME280;5350;42.698;23.148;2024-01-10T05:53:04;94696.94;;;-3.46;66.69
10606;BME280;5350;42.698;23.148;2024-01-10T05:55:31;94705.19;;;-3.50;65.43
10606;BME280;5350;42.698;23.148;2024-01-10T05:57:57;94702.59;;;-3.50;63.82
10606;BME280;5350;42.698;23.148;2024-01-10T06:00:24;94706.78;;;-3.49;63.95
10606;BME280;5350;42.698;23.148;2024-01-10T06:02:51;94705.88;;;-3.56;63.52
10606;BME280;5350;42.698;23.148;2024-01-10T06:05:17;94707.50;;;-3.55;63.63
10606;BME280;5350;42.698;23.148;2024-01-10T06:07:45;94718.50;;;-3.61;62.25
10606;BME280;5350;42.698;23.148;2024-01-10T06:10:12;94713.25;;;-3.68;61.18
10606;BME280;5350;42.698;23.148;2024-01-10T06:12:39;94709.16;;;-3.62;63.06
10606;BME280;5350;42.698;23.148;2024-01-10T06:15:07;94710.78;;;-3.61;63.64
10606;BME280;5350;42.698;23.148;2024-01-10T06:17:33;94716.00;;;-3.69;60.82
10606;BME280;5350;42.698;23.148;2024-01-10T06:20:00;94720.25;;;-3.76;60.46
10606;BME280;5350;42.698;23.148;2024-01-10T06:22:29;94723.63;;;-3.76;61.72
10606;BME280;5350;42.698;23.148;2024-01-10T06:24:57;94726.28;;;-3.69;62.32
10606;BME280;5350;42.698;23.148;2024-01-10T06:27:23;94712.72;;;-3.78;61.93
10606;BME280;5350;42.698;23.148;2024-01-10T06:29:50;94727.16;;;-3.62;62.73
10606;BME280;5350;42.698;23.148;2024-01-10T06:32:17;94732.06;;;-3.53;63.87
10606;BME280;5350;42.698;23.148;2024-01-10T06:34:44;94726.38;;;-3.48;63.51
10606;BME280;5350;42.698;23.148;2024-01-10T06:37:10;94730.56;;;-3.47;62.13
10606;BME280;5350;42.698;23.148;2024-01-10T06:39:37;94728.94;;;-3.48;62.48
10606;BME280;5350;42.698;23.148;2024-01-10T06:42:06;94728.06;;;-3.55;62.63
10606;BME280;5350;42.698;23.148;2024-01-10T06:44:36;94744.38;;;-3.48;63.65
10606;BME280;5350;42.698;23.148;2024-01-10T06:47:03;94742.72;;;-3.41;63.88
10606;BME280;5350;42.698;23.148;2024-01-10T06:49:30;94748.91;;;-3.36;62.87
10606;BME280;5350;42.698;23.148;2024-01-10T06:51:56;94753.91;;;-3.34;62.42
10606;BME280;5350;42.698;23.148;2024-01-10T06:54:25;94748.13;;;-3.36;62.37
10606;BME280;5350;42.698;23.148;2024-01-10T06:56:52;94744.56;;;-3.35;61.93
10606;BME280;5350;42.698;23.148;2024-01-10T06:59:20;94758.16;;;-3.27;60.56
10606;BME280;5350;42.698;23.148;2024-01-10T07:01:51;94766.78;;;-3.34;58.52
10606;BME280;5350;42.698;23.148;2024-01-10T07:04:22;94766.41;;;-3.31;59.12
10606;BME280;5350;42.698;23.148;2024-01-10T07:06:50;94763.72;;;-3.23;60.44
10606;BME280;5350;42.698;23.148;2024-01-10T07:09:17;94756.63;;;-3.21;60.38
10606;BME280;5350;42.698;23.148;2024-01-10T07:11:45;94760.63;;;-3.18;58.96
10606;BME280;5350;42.698;23.148;2024-01-10T07:14:12;94766.50;;;-3.10;58.80
10606;BME280;5350;42.698;23.148;2024-01-10T07:16:41;94768.00;;;-3.01;56.96
10606;BME280;5350;42.698;23.148;2024-01-10T07:19:11;94770.41;;;-2.99;57.92
10606;BME280;5350;42.698;23.148;2024-01-10T07:21:39;94772.06;;;-3.06;57.39
10606;BME280;5350;42.698;23.148;2024-01-10T07:24:06;94775.03;;;-3.09;56.01
10606;BME280;5350;42.698;23.148;2024-01-10T07:26:33;94773.50;;;-3.04;56.25
10606;BME280;5350;42.698;23.148;2024-01-10T07:29:01;94782.66;;;-3.16;54.93
10606;BME280;5350;42.698;23.148;2024-01-10T07:31:28;94784.25;;;-3.00;55.43
10606;BME280;5350;42.698;23.148;2024-01-10T07:34:13;94789.03;;;-2.97;54.89
10606;BME280;5350;42.698;23.148;2024-01-10T07:36:43;94778.44;;;-2.88;55.51
10606;BME280;5350;42.698;23.148;2024-01-10T07:39:09;94788.06;;;-2.82;55.96
10606;BME280;5350;42.698;23.148;2024-01-10T07:41:36;94790.25;;;-2.79;54.63
10606;BME280;5350;42.698;23.148;2024-01-10T07:44:03;94791.31;;;-2.73;53.22
10606;BME280;5350;42.698;23.148;2024-01-10T07:46:30;94791.06;;;-2.78;53.08
10606;BME280;5350;42.698;23.148;2024-01-10T07:48:57;94794.59;;;-2.65;53.15
10606;BME280;5350;42.698;23.148;2024-01-10T07:51:27;94801.78;;;-2.60;51.63
10606;BME280;5350;42.698;23.148;2024-01-10T07:53:53;94800.19;;;-2.61;51.02
10606;BME280;5350;42.698;23.148;2024-01-10T07:56:20;94804.97;;;-2.58;52.21
10606;BME280;5350;42.698;23.148;2024-01-10T07:58:47;94798.31;;;-2.53;50.85
10606;BME280;5350;42.698;23.148;2024-01-10T08:01:14;94798.66;;;-2.41;51.27
10606;BME280;5350;42.698;23.148;2024-01-10T08:03:41;94796.75;;;-2.32;52.05
10606;BME280;5350;42.698;23.148;2024-01-10T08:06:07;94800.19;;;-2.11;53.78
10606;BME280;5350;42.698;23.148;2024-01-10T08:08:37;94803.84;;;-1.99;52.80
10606;BME280;5350;42.698;23.148;2024-01-10T08:11:03;94801.97;;;-1.90;51.16
10606;BME280;5350;42.698;23.148;2024-01-10T08:13:30;94809.78;;;-1.77;48.64
10606;BME280;5350;42.698;23.148;2024-01-10T08:15:57;94802.38;;;-2.08;48.89
10606;BME280;5350;42.698;23.148;2024-01-10T08:18:24;94801.31;;;-2.34;49.26
10606;BME280;5350;42.698;23.148;2024-01-10T08:20:51;94797.75;;;-2.48;50.34
10606;BME280;5350;42.698;23.148;2024-01-10T08:23:17;94805.94;;;-2.45;50.78
10606;BME280;5350;42.698;23.148;2024-01-10T08:25:45;94801.56;;;-2.44;51.20
10606;BME280;5350;42.698;23.148;2024-01-10T08:28:12;94794.34;;;-2.19;52.28
10606;BME280;5350;42.698;23.148;2024-01-10T08:30:39;94794.28;;;-2.05;51.11
10606;BME280;5350;42.698;23.148;2024-01-10T08:33:06;94795.19;;;-2.12;52.37
10606;BME280;5350;42.698;23.148;2024-01-10T08:35:33;94798.16;;;-1.94;53.58
10606;BME280;5350;42.698;23.148;2024-01-10T08:38:00;94797.03;;;-1.85;53.16
10606;BME280;5350;42.698;23.148;2024-01-10T08:40:29;94797.44;;;-1.61;52.13
10606;BME280;5350;42.698;23.148;2024-01-10T08:42:57;94789.63;;;-1.46;53.78
10606;BME280;5350;42.698;23.148;2024-01-10T08:45:24;94787.53;;;-1.36;52.96
10606;BME280;5350;42.698;23.148;2024-01-10T08:47:51;94788.34;;;-1.29;57.17
10606;BME280;5350;42.698;23.148;2024-01-10T08:50:18;94791.69;;;-1.07;57.38
10606;BME280;5350;42.698;23.148;2024-01-10T08:52:45;94792.53;;;-0.94;56.18
10606;BME280;5350;42.698;23.148;2024-01-10T08:55:12;94786.41;;;-0.93;56.95
10606;BME280;5350;42.698;23.148;2024-01-10T08:57:38;94789.75;;;-0.99;56.58
10606;BME280;5350;42.698;23.148;2024-01-10T09:00:08;94783.41;;;-0.96;57.43
10606;BME280;5350;42.698;23.148;2024-01-10T09:02:37;94785.91;;;-0.68;56.75
10606;BME280;5350;42.698;23.148;2024-01-10T09:05:04;94787.97;;;-0.57;57.37
10606;BME280;5350;42.698;23.148;2024-01-10T09:07:33;94791.25;;;-0.29;57.83
10606;BME280;5350;42.698;23.148;2024-01-10T09:10:00;94788.75;;;-0.03;54.86
10606;BME280;5350;42.698;23.148;2024-01-10T09:12:27;94792.16;;;0.17;53.71
10606;BME280;5350;42.698;23.148;2024-01-10T09:14:54;94789.41;;;0.45;54.81
10606;BME280;5350;42.698;23.148;2024-01-10T09:17:22;94786.22;;;0.56;52.69
10606;BME280;5350;42.698;23.148;2024-01-10T09:19:49;94786.63;;;0.59;52.04
10606;BME280;5350;42.698;23.148;2024-01-10T09:22:16;94795.78;;;0.55;51.89
10606;BME280;5350;42.698;23.148;2024-01-10T09:24:42;94788.63;;;0.77;53.45
10606;BME280;5350;42.698;23.148;2024-01-10T09:27:10;94788.41;;;0.92;52.57
10606;BME280;5350;42.698;23.148;2024-01-10T09:29:37;94785.00;;;0.98;50.53
10606;BME280;5350;42.698;23.148;2024-01-10T09:32:04;94781.19;;;1.07;50.84
10606;BME280;5350;42.698;23.148;2024-01-10T09:34:33;94782.94;;;1.26;50.63
10606;BME280;5350;42.698;23.148;2024-01-10T09:37:00;94780.91;;;1.41;51.15
10606;BME280;5350;42.698;23.148;2024-01-10T09:39:27;94772.31;;;1.40;50.25
10606;BME280;5350;42.698;23.148;2024-01-10T09:41:54;94777.88;;;1.50;49.88
10606;BME280;5350;42.698;23.148;2024-01-10T09:44:21;94776.97;;;1.76;50.07
10606;BME280;5350;42.698;23.148;2024-01-10T09:46:50;94777.06;;;1.94;48.40
10606;BME280;5350;42.698;23.148;2024-01-10T09:49:18;94776.16;;;2.13;48.38
10606;BME280;5350;42.698;23.148;2024-01-10T09:51:49;94781.28;;;2.26;47.95
10606;BME280;5350;42.698;23.148;2024-01-10T09:54:16;94785.63;;;2.32;46.53
10606;BME280;5350;42.698;23.148;2024-01-10T09:56:45;94772.38;;;2.40;46.05
10606;BME280;5350;42.698;23.148;2024-01-10T09:59:12;94763.47;;;2.55;46.53
10606;BME280;5350;42.698;23.148;2024-01-10T10:01:39;94764.28;;;2.55;45.66
10606;BME280;5350;42.698;23.148;2024-01-10T10:04:07;94764.34;;;2.49;45.16
10606;BME280;5350;42.698;23.148;2024-01-10T10:06:34;94755.19;;;2.71;44.34
10606;BME280;5350;42.698;23.148;2024-01-10T10:09:02;94757.22;;;2.87;42.84
10606;BME280;5350;42.698;23.148;2024-01-10T10:11:29;94747.81;;;2.86;41.16
10606;BME280;5350;42.698;23.148;2024-01-10T10:14:02;94735.28;;;2.83;41.07
10606;BME280;5350;42.698;23.148;2024-01-10T10:16:39;94732.91;;;2.99;41.99
10606;BME280;5350;42.698;23.148;2024-01-10T10:19:06;94706.13;;;2.81;40.07
10606;BME280;5350;42.698;23.148;2024-01-10T10:21:35;94721.25;;;2.84;41.30
10606;BME280;5350;42.698;23.148;2024-01-10T10:24:03;94713.06;;;2.87;40.00
10606;BME280;5350;42.698;23.148;2024-01-10T10:26:32;94711.53;;;2.97;41.76
10606;BME280;5350;42.698;23.148;2024-01-10T10:29:00;94708.16;;;3.15;40.77
10606;BME280;5350;42.698;23.148;2024-01-10T10:31:27;94707.06;;;3.41;40.39
10606;BME280;5350;42.698;23.148;2024-01-10T10:33:54;94698.75;;;3.32;40.43
10606;BME280;5350;42.698;23.148;2024-01-10T10:36:22;94686.91;;;3.54;39.62
10606;BME280;5350;42.698;23.148;2024-01-10T10:38:49;94695.38;;;3.79;39.42
10606;BME280;5350;42.698;23.148;2024-01-10T10:41:18;94696.75;;;3.93;37.78
10606;BME280;5350;42.698;23.148;2024-01-10T10:43:45;94685.13;;;3.66;39.18
10606;BME280;5350;42.698;23.148;2024-01-10T10:46:12;94677.44;;;3.71;39.40
10606;BME280;5350;42.698;23.148;2024-01-10T10:48:39;94671.31;;;3.95;38.99
10606;BME280;5350;42.698;23.148;2024-01-10T10:51:07;94672.25;;;4.24;40.06
10606;BME280;5350;42.698;23.148;2024-01-10T10:53:36;94671.38;;;4.42;38.80
10606;BME280;5350;42.698;23.148;2024-01-10T10:56:05;94676.47;;;3.84;38.72
10606;BME280;5350;42.698;23.148;2024-01-10T10:58:36;94661.81;;;4.01;39.44
10606;BME280;5350;42.698;23.148;2024-01-10T11:01:05;94665.53;;;3.93;39.08
10606;BME280;5350;42.698;23.148;2024-01-10T11:03:34;94652.00;;;4.15;39.67
10606;BME280;5350;42.698;23.148;2024-01-10T11:06:03;94655.59;;;4.14;39.01
10606;BME280;5350;42.698;23.148;2024-01-10T11:08:31;94650.63;;;4.24;40.03
10606;BME280;5350;42.698;23.148;2024-01-10T11:11:02;94646.09;;;4.42;39.22
10606;BME280;5350;42.698;23.148;2024-01-10T11:13:51;94648.81;;;4.82;39.88
10606;BME280;5350;42.698;23.148;2024-01-10T11:16:40;94644.56;;;5.16;38.05
10606;BME280;5350;42.698;23.148;2024-01-10T11:19:41;94634.91;;;5.28;37.88
10606;BME280;5350;42.698;23.148;2024-01-10T11:22:17;94646.13;;;5.28;37.66
10606;BME280;5350;42.698;23.148;2024-01-10T11:24:47;94631.16;;;5.24;37.68
10606;BME280;5350;42.698;23.148;2024-01-10T11:27:15;94646.75;;;5.07;38.49
10606;BME280;5350;42.698;23.148;2024-01-10T11:29:46;94638.03;;;5.41;38.80
10606;BME280;5350;42.698;23.148;2024-01-10T11:32:14;94636.16;;;5.65;37.67
10606;BME280;5350;42.698;23.148;2024-01-10T11:34:49;94626.13;;;5.74;38.30
10606;BME280;5350;42.698;23.148;2024-01-10T11:37:16;94624.91;;;5.93;38.09
10606;BME280;5350;42.698;23.148;2024-01-10T11:39:44;94622.94;;;6.00;38.41
10606;BME280;5350;42.698;23.148;2024-01-10T11:42:11;94612.03;;;6.03;38.88
10606;BME280;5350;42.698;23.148;2024-01-10T11:44:57;94617.41;;;5.96;38.76
10606;BME280;5350;42.698;23.148;2024-01-10T11:47:24;94610.53;;;6.07;38.38
10606;BME280;5350;42.698;23.148;2024-01-10T11:49:56;94605.75;;;6.04;38.58
10606;BME280;5350;42.698;23.148;2024-01-10T11:52:23;94601.56;;;6.03;37.94
10606;BME280;5350;42.698;23.148;2024-01-10T11:54:50;94598.16;;;6.19;38.52
10606;BME280;5350;42.698;23.148;2024-01-10T11:57:21;94598.00;;;6.42;38.23
10606;BME280;5350;42.698;23.148;2024-01-10T11:59:50;94597.72;;;6.60;37.30
10606;BME280;5350;42.698;23.148;2024-01-10T12:02:21;94594.66;;;6.63;38.11
10606;BME280;5350;42.698;23.148;2024-01-10T12:04:49;94583.78;;;6.71;37.56
10606;BME280;5350;42.698;23.148;2024-01-10T12:07:16;94589.25;;;6.91;37.83
10606;BME280;5350;42.698;23.148;2024-01-10T12:09:44;94582.56;;;6.79;36.59
10606;BME280;5350;42.698;23.148;2024-01-10T12:12:12;94573.88;;;6.73;37.20
10606;BME280;5350;42.698;23.148;2024-01-10T12:14:39;94578.38;;;6.99;38.18
10606;BME280;5350;42.698;23.148;2024-01-10T12:17:06;94571.25;;;6.73;37.59
10606;BME280;5350;42.698;23.148;2024-01-10T12:19:35;94571.63;;;6.82;37.68
10606;BME280;5350;42.698;23.148;2024-01-10T12:22:02;94573.63;;;6.96;36.94
10606;BME280;5350;42.698;23.148;2024-01-10T12:24:30;94567.34;;;6.97;37.65
10606;BME280;5350;42.698;23.148;2024-01-10T12:26:57;94562.50;;;7.06;37.17
10606;BME280;5350;42.698;23.148;2024-01-10T12:29:25;94573.63;;;6.96;36.41
10606;BME280;5350;42.698;23.148;2024-01-10T12:31:52;94571.19;;;7.11;37.17
10606;BME280;5350;42.698;23.148;2024-01-10T12:34:19;94568.28;;;7.08;38.09
10606;BME280;5350;42.698;23.148;2024-01-10T12:36:48;94571.59;;;7.25;37.54
10606;BME280;5350;42.698;23.148;2024-01-10T12:39:15;94568.28;;;7.56;37.55
10606;BME280;5350;42.698;23.148;2024-01-10T12:41:42;94566.63;;;7.77;38.27
10606;BME280;5350;42.698;23.148;2024-01-10T12:44:10;94562.19;;;8.09;36.43
10606;BME280;5350;42.698;23.148;2024-01-10T12:46:49;94564.16;;;8.24;36.72
10606;BME280;5350;42.698;23.148;2024-01-10T12:49:16;94565.53;;;8.31;36.82
10606;BME280;5350;42.698;23.148;2024-01-10T12:51:43;94568.59;;;8.60;36.13
10606;BME280;5350;42.698;23.148;2024-01-10T12:54:10;94563.72;;;8.73;35.23
10606;BME280;5350;42.698;23.148;2024-01-10T12:56:37;94568.53;;;8.97;35.14
10606;BME280;5350;42.698;23.148;2024-01-10T12:59:04;94569.28;;;8.87;35.24
10606;BME280;5350;42.698;23.148;2024-01-10T13:01:31;94569.28;;;8.87;34.84
10606;BME280;5350;42.698;23.148;2024-01-10T13:03:57;94568.09;;;8.63;34.07
10606;BME280;5350;42.698;23.148;2024-01-10T13:06:24;94563.09;;;8.25;32.96
10606;BME280;5350;42.698;23.148;2024-01-10T13:08:51;94562.56;;;7.59;33.59